createdAt,value
2019-05-30T00:00:03.675Z,16.85
2019-05-30T00:02:20.760Z,16.88
2019-05-30T00:04:52.277Z,16.84
2019-05-30T00:07:23.956Z,16.75
2019-05-30T00:09:56.357Z,16.72
2019-05-30T00:12:27.855Z,16.78
2019-05-30T00:14:59.262Z,16.76
2019-05-30T00:17:30.862Z,16.86
2019-05-30T00:20:03.343Z,16.92
2019-05-30T00:22:36.026Z,17.03
2019-05-30T00:25:08.270Z,17.17
2019-05-30T00:27:39.887Z,17.26
2019-05-30T00:30:24.070Z,17.35
2019-05-30T00:32:44.709Z,17.38
2019-05-30T00:35:16.312Z,17.35
2019-05-30T00:37:48.142Z,17.47
2019-05-30T00:40:19.788Z,17.41
2019-05-30T00:42:52.065Z,17.61
2019-05-30T00:45:23.482Z,17.67
2019-05-30T00:47:55.968Z,17.45
2019-05-30T00:50:27.760Z,17.52
2019-05-30T00:53:00.683Z,17.48
2019-05-30T00:55:33.115Z,17.46
2019-05-30T00:58:04.890Z,17.49
2019-05-30T01:00:43.355Z,17.61
2019-05-30T01:03:10.804Z,17.61
2019-05-30T01:05:42.707Z,17.64
2019-05-30T01:08:14.406Z,17.59
2019-05-30T01:10:45.853Z,17.56
2019-05-30T01:13:17.456Z,17.69
2019-05-30T01:15:49.306Z,17.58
2019-05-30T01:18:20.776Z,17.64
2019-05-30T01:20:52.410Z,17.58
2019-05-30T01:23:24.738Z,17.60
2019-05-30T01:25:57.311Z,17.57
2019-05-30T01:28:29.016Z,17.60
2019-05-30T01:31:05.561Z,17.51
2019-05-30T01:33:33.630Z,17.57
2019-05-30T01:36:05.811Z,17.53
2019-05-30T01:38:37.173Z,17.36
2019-05-30T01:41:08.667Z,17.35
2019-05-30T01:43:40.219Z,17.38
2019-05-30T01:46:11.834Z,17.33
2019-05-30T01:48:43.122Z,17.43
2019-05-30T01:51:14.722Z,17.28
2019-05-30T01:53:46.393Z,17.19
2019-05-30T01:56:17.904Z,17.02
2019-05-30T01:58:49.281Z,16.84
2019-05-30T02:01:29.914Z,16.70
2019-05-30T02:04:03.129Z,16.64
2019-05-30T02:06:38.001Z,16.52
2019-05-30T02:09:10.386Z,16.59
2019-05-30T02:11:42.169Z,16.62
2019-05-30T02:14:13.836Z,16.68
2019-05-30T02:16:45.398Z,16.58
2019-05-30T02:19:16.753Z,16.57
2019-05-30T02:21:48.184Z,16.57
2019-05-30T02:24:21.147Z,16.78
2019-05-30T02:26:52.685Z,16.66
2019-05-30T02:29:24.098Z,16.65
2019-05-30T02:31:55.896Z,16.65
2019-05-30T02:34:27.655Z,16.61
2019-05-30T02:37:00.947Z,16.66
2019-05-30T02:39:32.197Z,16.67
2019-05-30T02:42:07.477Z,16.71
2019-05-30T02:44:39.320Z,16.65
2019-05-30T02:47:11.539Z,16.76
2019-05-30T02:49:43.257Z,16.63
2019-05-30T02:52:14.621Z,16.75
2019-05-30T02:54:47.067Z,16.79
2019-05-30T02:57:18.607Z,16.81
2019-05-30T02:59:50.099Z,16.76
2019-05-30T03:02:21.563Z,16.79
2019-05-30T03:04:53.007Z,16.75
2019-05-30T03:07:24.460Z,16.78
2019-05-30T03:09:55.949Z,16.67
2019-05-30T03:12:27.311Z,16.61
2019-05-30T03:14:58.928Z,16.69
2019-05-30T03:17:30.656Z,16.78
2019-05-30T03:20:07.966Z,16.70
2019-05-30T03:22:35.789Z,16.75
2019-05-30T03:25:27.584Z,16.62
2019-05-30T03:27:59.128Z,16.81
2019-05-30T03:30:31.156Z,16.91
2019-05-30T03:33:11.941Z,16.95
2019-05-30T03:35:42.388Z,17.01
2019-05-30T03:38:12.426Z,17.09
2019-05-30T03:40:42.060Z,17.07
2019-05-30T03:43:15.666Z,17.21
2019-05-30T03:45:47.225Z,17.26
2019-05-30T03:48:21.411Z,17.32
2019-05-30T03:50:55.728Z,17.39
2019-05-30T03:53:27.184Z,17.36
2019-05-30T03:56:06.533Z,17.19
2019-05-30T03:58:52.062Z,17.38
2019-05-30T04:01:28.417Z,17.47
2019-05-30T04:04:16.662Z,17.45
2019-05-30T04:06:51.495Z,17.47
2019-05-30T04:09:25.370Z,17.44
2019-05-30T04:12:07.774Z,17.42
2019-05-30T04:14:42.371Z,17.47
2019-05-30T04:17:16.007Z,17.49
2019-05-30T04:19:47.696Z,17.55
2019-05-30T04:22:19.609Z,17.88
2019-05-30T04:24:51.139Z,17.89
2019-05-30T04:27:22.553Z,17.98
2019-05-30T04:29:54.017Z,18.08
2019-05-30T04:32:25.624Z,18.22
2019-05-30T04:34:57.041Z,18.39
2019-05-30T04:37:28.506Z,18.39
2019-05-30T04:40:00.095Z,18.49
2019-05-30T04:42:31.885Z,18.61
2019-05-30T04:45:03.344Z,18.75
2019-05-30T04:47:35.254Z,18.79
2019-05-30T04:50:06.803Z,18.85
2019-05-30T04:52:38.665Z,18.99
2019-05-30T04:55:12.607Z,19.12
2019-05-30T04:57:43.614Z,19.28
2019-05-30T05:00:17.013Z,19.41
2019-05-30T05:02:49.014Z,19.41
2019-05-30T05:05:26.562Z,19.53
2019-05-30T05:07:53.443Z,19.40
2019-05-30T05:10:24.813Z,19.51
2019-05-30T05:12:56.344Z,19.36
2019-05-30T05:15:27.835Z,19.56
2019-05-30T05:17:59.135Z,19.66
2019-05-30T05:20:31.000Z,19.73
2019-05-30T05:23:02.491Z,19.68
2019-05-30T05:25:33.910Z,19.60
2019-05-30T05:28:05.642Z,19.50
2019-05-30T05:30:37.152Z,19.62
2019-05-30T05:33:08.641Z,19.83
2019-05-30T05:35:40.307Z,19.83
2019-05-30T05:38:11.645Z,20.01
2019-05-30T05:40:43.061Z,20.03
2019-05-30T05:43:14.557Z,20.27
2019-05-30T05:45:45.961Z,20.34
2019-05-30T05:48:18.376Z,20.45
2019-05-30T05:50:50.017Z,20.55
2019-05-30T05:53:22.953Z,20.72
2019-05-30T05:55:53.486Z,20.88
2019-05-30T05:58:26.436Z,21.12
2019-05-30T06:00:58.267Z,21.20
2019-05-30T06:03:29.759Z,21.33
2019-05-30T06:06:01.471Z,21.49
2019-05-30T06:08:33.363Z,21.57
2019-05-30T06:11:04.939Z,21.68
2019-05-30T06:13:36.519Z,21.82
2019-05-30T06:16:07.868Z,21.88
2019-05-30T06:18:39.336Z,21.94
2019-05-30T06:21:10.912Z,21.92
2019-05-30T06:23:45.648Z,21.96
2019-05-30T06:26:15.810Z,21.72
2019-05-30T06:28:47.415Z,21.96
2019-05-30T06:31:18.940Z,22.00
2019-05-30T06:33:50.919Z,22.08
2019-05-30T06:36:23.074Z,22.12
2019-05-30T06:38:54.879Z,22.06
2019-05-30T06:41:27.657Z,22.20
2019-05-30T06:43:59.191Z,22.34
2019-05-30T06:46:31.077Z,22.63
2019-05-30T06:49:02.842Z,22.84
2019-05-30T06:51:35.213Z,22.91
2019-05-30T06:54:06.765Z,23.04
2019-05-30T06:56:38.263Z,23.33
2019-05-30T06:59:10.112Z,23.41
2019-05-30T07:01:41.829Z,23.45
2019-05-30T07:04:13.968Z,23.68
2019-05-30T07:06:46.299Z,23.67
2019-05-30T07:09:18.367Z,23.63
2019-05-30T07:11:50.115Z,23.76
2019-05-30T07:14:23.031Z,23.83
2019-05-30T07:16:54.826Z,23.93
2019-05-30T07:19:27.399Z,23.82
2019-05-30T07:22:00.503Z,23.89
2019-05-30T07:24:33.928Z,24.02
2019-05-30T07:27:05.719Z,24.21
2019-05-30T07:29:37.410Z,24.19
2019-05-30T07:32:09.116Z,24.33
2019-05-30T07:34:40.801Z,24.31
2019-05-30T07:37:12.215Z,24.30
2019-05-30T07:39:43.694Z,24.31
2019-05-30T07:42:17.719Z,24.57
2019-05-30T07:44:49.417Z,24.50
2019-05-30T07:47:21.200Z,24.71
2019-05-30T07:49:52.768Z,24.91
2019-05-30T07:52:24.357Z,24.88
2019-05-30T07:54:56.110Z,25.09
2019-05-30T07:57:28.071Z,25.05
2019-05-30T07:59:59.730Z,25.29
2019-05-30T08:02:31.860Z,25.17
2019-05-30T08:05:03.535Z,25.03
2019-05-30T08:07:36.230Z,25.16
2019-05-30T08:10:08.662Z,25.23
2019-05-30T08:12:40.268Z,25.40
2019-05-30T08:15:13.151Z,25.55
2019-05-30T08:17:44.540Z,25.74
2019-05-30T08:20:16.446Z,26.08
2019-05-30T08:22:48.169Z,26.13
2019-05-30T08:25:19.891Z,26.26
2019-05-30T08:27:51.412Z,25.83
2019-05-30T08:30:23.243Z,25.65
2019-05-30T08:32:54.780Z,25.28
2019-05-30T08:35:39.098Z,25.40
2019-05-30T08:37:59.726Z,25.50
2019-05-30T08:40:31.285Z,25.42
2019-05-30T08:43:03.682Z,25.36
2019-05-30T08:45:35.937Z,25.36
2019-05-30T08:48:07.914Z,25.55
2019-05-30T08:50:44.068Z,25.54
2019-05-30T08:53:12.671Z,25.70
2019-05-30T08:55:44.397Z,26.03
2019-05-30T08:58:15.751Z,26.32
2019-05-30T09:00:47.282Z,26.32
2019-05-30T09:03:18.667Z,26.43
2019-05-30T09:06:03.021Z,26.06
2019-05-30T09:08:23.668Z,25.97
2019-05-30T09:10:55.353Z,25.83
2019-05-30T09:13:27.236Z,25.41
2019-05-30T09:15:58.934Z,25.37
2019-05-30T09:18:30.506Z,25.09
2019-05-30T09:21:02.045Z,25.06
2019-05-30T09:23:33.661Z,25.09
2019-05-30T09:26:05.221Z,24.87
2019-05-30T09:28:37.755Z,24.39
2019-05-30T09:31:08.738Z,24.23
2019-05-30T09:33:40.973Z,23.96
2019-05-30T09:36:13.972Z,23.68
2019-05-30T09:38:45.684Z,23.50
2019-05-30T09:41:17.333Z,23.69
2019-05-30T09:43:50.257Z,23.84
2019-05-30T09:46:20.705Z,24.00
2019-05-30T09:48:52.135Z,24.07
2019-05-30T09:51:23.712Z,24.42
2019-05-30T09:53:55.258Z,24.92
2019-05-30T09:56:26.929Z,25.33
2019-05-30T09:58:58.729Z,25.58
2019-05-30T10:01:30.339Z,25.99
2019-05-30T10:04:01.911Z,26.00
2019-05-30T10:06:33.608Z,25.89
2019-05-30T10:09:06.244Z,26.37
2019-05-30T10:11:38.020Z,26.64
2019-05-30T10:14:09.581Z,27.10
2019-05-30T10:16:41.079Z,27.10
2019-05-30T10:19:12.750Z,27.51
2019-05-30T10:21:45.505Z,27.24
2019-05-30T10:24:18.814Z,27.62
2019-05-30T10:26:51.106Z,27.62
2019-05-30T10:29:23.979Z,27.69
2019-05-30T10:31:56.897Z,27.15
2019-05-30T10:34:30.095Z,26.98
2019-05-30T10:37:01.759Z,26.63
2019-05-30T10:39:33.333Z,26.25
2019-05-30T10:42:04.612Z,26.08
2019-05-30T10:44:36.410Z,25.82
2019-05-30T10:47:08.216Z,25.39
2019-05-30T10:49:39.879Z,25.63
2019-05-30T10:52:11.472Z,25.98
2019-05-30T10:54:43.180Z,26.55
2019-05-30T10:57:14.615Z,26.63
2019-05-30T10:59:47.340Z,26.68
2019-05-30T11:02:19.872Z,26.59
2019-05-30T11:04:53.006Z,26.56
2019-05-30T11:07:53.082Z,26.65
2019-05-30T11:10:17.510Z,26.55
2019-05-30T11:12:50.156Z,25.96
2019-05-30T11:15:22.333Z,25.82
2019-05-30T11:17:54.807Z,25.53
2019-05-30T11:20:27.235Z,25.38
2019-05-30T11:22:58.796Z,25.59
2019-05-30T11:25:30.326Z,26.18
2019-05-30T11:28:02.125Z,26.43
2019-05-30T11:30:37.915Z,26.61
2019-05-30T11:33:09.521Z,27.21
2019-05-30T11:35:41.193Z,27.21
2019-05-30T11:38:12.881Z,27.08
2019-05-30T11:40:44.356Z,27.14
2019-05-30T11:43:16.058Z,27.03
2019-05-30T11:45:47.592Z,26.83
2019-05-30T11:48:19.054Z,26.75
2019-05-30T11:50:51.955Z,26.51
2019-05-30T11:53:23.721Z,26.56
2019-05-30T11:55:56.208Z,26.46
2019-05-30T11:58:28.137Z,26.55
2019-05-30T12:01:00.586Z,26.61
2019-05-30T12:03:33.315Z,26.59
2019-05-30T12:06:05.483Z,26.48
2019-05-30T12:08:38.241Z,26.48
2019-05-30T12:11:09.701Z,26.60
2019-05-30T12:13:41.011Z,26.79
2019-05-30T12:16:12.805Z,27.08
2019-05-30T12:18:44.132Z,27.40
2019-05-30T12:21:15.716Z,27.81
2019-05-30T12:23:47.462Z,28.50
2019-05-30T12:26:38.983Z,28.68
2019-05-30T12:29:10.444Z,28.59
2019-05-30T12:31:41.945Z,28.71
2019-05-30T12:34:13.272Z,29.02
2019-05-30T12:36:44.957Z,29.63
2019-05-30T12:39:16.987Z,30.23
2019-05-30T12:41:48.701Z,31.06
2019-05-30T12:44:20.501Z,31.41
2019-05-30T12:46:53.334Z,31.84
2019-05-30T12:49:25.089Z,31.81
2019-05-30T12:51:56.556Z,31.44
2019-05-30T12:54:28.307Z,29.83
2019-05-30T12:57:02.572Z,28.67
2019-05-30T12:59:34.305Z,28.67
2019-05-30T13:02:05.651Z,27.99
2019-05-30T13:04:37.021Z,27.91
2019-05-30T13:07:08.559Z,27.62
2019-05-30T13:09:40.098Z,27.15
2019-05-30T13:12:11.800Z,26.69
2019-05-30T13:14:43.240Z,26.54
2019-05-30T13:17:14.927Z,26.38
2019-05-30T13:19:46.525Z,26.14
2019-05-30T13:22:18.462Z,26.13
2019-05-30T13:24:49.962Z,25.93
2019-05-30T13:27:21.302Z,25.82
2019-05-30T13:29:53.157Z,25.66
2019-05-30T13:32:24.953Z,25.61
2019-05-30T13:34:56.905Z,25.32
2019-05-30T13:37:28.716Z,26.13
2019-05-30T13:40:01.402Z,27.63
2019-05-30T13:42:32.887Z,29.20
2019-05-30T13:45:04.693Z,30.44
2019-05-30T13:47:37.251Z,30.87
2019-05-30T13:50:14.021Z,30.45
2019-05-30T13:52:44.263Z,29.67
2019-05-30T13:55:16.411Z,29.31
2019-05-30T13:57:48.109Z,28.77
2019-05-30T14:00:19.972Z,28.52
2019-05-30T14:02:51.669Z,27.85
2019-05-30T14:05:23.364Z,27.45
2019-05-30T14:07:54.938Z,27.06
2019-05-30T14:10:26.529Z,26.87
2019-05-30T14:12:58.131Z,27.21
2019-05-30T14:15:29.872Z,28.37
2019-05-30T14:18:05.035Z,28.83
2019-05-30T14:20:36.576Z,28.26
2019-05-30T14:23:09.380Z,28.29
2019-05-30T14:25:41.185Z,29.40
2019-05-30T14:28:12.621Z,30.04
2019-05-30T14:30:45.329Z,30.64
2019-05-30T14:33:16.987Z,31.10
2019-05-30T14:35:48.391Z,31.60
2019-05-30T14:38:20.011Z,31.81
2019-05-30T14:40:52.112Z,31.80
2019-05-30T14:43:23.813Z,31.85
2019-05-30T14:45:55.378Z,31.82
2019-05-30T14:48:27.291Z,31.30
2019-05-30T14:51:00.009Z,30.89
2019-05-30T14:53:31.843Z,30.16
2019-05-30T14:56:03.381Z,29.39
2019-05-30T14:58:34.785Z,28.89
2019-05-30T15:01:07.101Z,28.19
2019-05-30T15:03:38.905Z,27.51
2019-05-30T15:06:12.928Z,26.98
2019-05-30T15:08:43.906Z,26.31
2019-05-30T15:11:16.903Z,26.11
2019-05-30T15:13:48.583Z,25.93
2019-05-30T15:16:20.294Z,25.87
2019-05-30T15:18:51.826Z,25.78
2019-05-30T15:21:23.312Z,25.67
2019-05-30T15:23:54.838Z,25.49
2019-05-30T15:26:26.667Z,25.45
2019-05-30T15:28:58.007Z,25.36
2019-05-30T15:31:29.682Z,25.33
2019-05-30T15:34:01.528Z,25.22
2019-05-30T15:36:33.131Z,25.00
2019-05-30T15:39:06.825Z,25.00
2019-05-30T15:41:38.513Z,24.78
2019-05-30T15:44:09.870Z,24.58
2019-05-30T15:46:41.371Z,24.66
2019-05-30T15:49:12.835Z,24.61
2019-05-30T15:51:44.534Z,24.47
2019-05-30T15:54:17.047Z,24.34
2019-05-30T15:56:48.831Z,24.37
2019-05-30T15:59:20.401Z,24.34
2019-05-30T16:01:51.869Z,24.17
2019-05-30T16:04:24.712Z,24.09
2019-05-30T16:06:56.318Z,24.13
2019-05-30T16:09:27.720Z,24.11
2019-05-30T16:11:59.442Z,23.91
2019-05-30T16:14:31.026Z,23.82
2019-05-30T16:17:02.765Z,23.74
2019-05-30T16:19:34.355Z,23.68
2019-05-30T16:22:05.618Z,23.57
2019-05-30T16:24:37.211Z,23.51
2019-05-30T16:27:08.844Z,23.45
2019-05-30T16:29:40.492Z,23.50
2019-05-30T16:32:13.689Z,23.39
2019-05-30T16:34:45.564Z,23.36
2019-05-30T16:37:18.177Z,23.31
2019-05-30T16:40:04.476Z,23.25
2019-05-30T16:42:23.150Z,23.21
2019-05-30T16:44:54.628Z,23.07
2019-05-30T16:47:26.673Z,22.97
2019-05-30T16:49:58.345Z,22.91
2019-05-30T16:52:30.021Z,22.58
2019-05-30T16:55:01.680Z,22.69
2019-05-30T16:57:33.314Z,22.58
2019-05-30T17:00:05.083Z,22.53
2019-05-30T17:02:36.646Z,22.45
2019-05-30T17:05:08.245Z,22.34
2019-05-30T17:07:39.694Z,22.29
2019-05-30T17:10:21.995Z,22.23
2019-05-30T17:12:44.506Z,22.18
2019-05-30T17:15:17.800Z,22.12
2019-05-30T17:17:49.605Z,22.14
2019-05-30T17:20:22.462Z,22.00
2019-05-30T17:22:54.225Z,21.90
2019-05-30T17:25:25.859Z,21.77
2019-05-30T17:27:57.477Z,21.78
2019-05-30T17:30:29.320Z,21.71
2019-05-30T17:33:01.254Z,21.66
2019-05-30T17:35:33.072Z,21.58
2019-05-30T17:38:04.795Z,21.46
2019-05-30T17:40:44.740Z,21.46
2019-05-30T17:43:08.494Z,21.48
2019-05-30T17:45:40.193Z,21.44
2019-05-30T17:48:16.360Z,21.26
2019-05-30T17:50:45.023Z,21.25
2019-05-30T17:53:17.805Z,21.12
2019-05-30T17:55:49.413Z,21.09
2019-05-30T17:58:21.889Z,20.93
2019-05-30T18:00:56.926Z,20.94
2019-05-30T18:03:28.440Z,20.94
2019-05-30T18:05:59.039Z,20.93
2019-05-30T18:08:31.442Z,20.90
2019-05-30T18:11:03.058Z,20.70
2019-05-30T18:13:34.727Z,20.60
2019-05-30T18:16:06.402Z,20.60
2019-05-30T18:18:37.948Z,20.56
2019-05-30T18:21:09.765Z,20.48
2019-05-30T18:23:44.235Z,20.40
2019-05-30T18:26:15.472Z,20.47
2019-05-30T18:28:46.964Z,20.37
2019-05-30T18:31:18.342Z,20.23
2019-05-30T18:33:49.945Z,20.13
2019-05-30T18:36:22.265Z,20.01
2019-05-30T18:38:53.980Z,19.94
2019-05-30T18:41:26.596Z,19.70
2019-05-30T18:43:58.211Z,19.31
2019-05-30T18:46:29.742Z,19.07
2019-05-30T18:49:01.201Z,18.90
2019-05-30T18:51:32.696Z,18.80
2019-05-30T18:54:04.152Z,18.56
2019-05-30T18:56:37.010Z,18.39
2019-05-30T18:59:08.804Z,18.34
2019-05-30T19:01:40.136Z,18.29
2019-05-30T19:04:11.895Z,18.25
2019-05-30T19:06:43.575Z,18.24
2019-05-30T19:09:15.167Z,18.35
2019-05-30T19:11:47.134Z,18.29
2019-05-30T19:14:18.577Z,18.20
2019-05-30T19:16:49.895Z,18.20
2019-05-30T19:19:21.398Z,18.19
2019-05-30T19:21:53.015Z,18.21
2019-05-30T19:24:25.967Z,18.37
2019-05-30T19:26:57.666Z,18.35
2019-05-30T19:29:29.176Z,18.51
2019-05-30T19:32:00.614Z,18.55
2019-05-30T19:34:32.809Z,18.56
2019-05-30T19:37:04.402Z,18.58
2019-05-30T19:39:36.157Z,18.65
2019-05-30T19:42:07.694Z,18.59
2019-05-30T19:44:41.485Z,18.38
2019-05-30T19:47:11.438Z,18.20
2019-05-30T19:49:42.841Z,18.24
2019-05-30T19:52:14.268Z,18.03
2019-05-30T19:54:45.662Z,18.17
2019-05-30T19:57:17.119Z,18.14
2019-05-30T19:59:48.358Z,18.12
2019-05-30T20:02:20.082Z,18.06
2019-05-30T20:04:51.488Z,18.04
2019-05-30T20:07:22.902Z,17.83
2019-05-30T20:10:01.193Z,17.52
2019-05-30T20:12:27.694Z,17.51
2019-05-30T20:14:59.191Z,17.55
2019-05-30T20:17:31.600Z,17.47
2019-05-30T20:20:03.290Z,17.24
2019-05-30T20:22:35.965Z,17.13
2019-05-30T20:25:09.465Z,16.98
2019-05-30T20:27:41.485Z,16.90
2019-05-30T20:30:13.841Z,16.89
2019-05-30T20:32:45.400Z,17.06
2019-05-30T20:35:17.220Z,17.10
2019-05-30T20:37:49.750Z,16.92
2019-05-30T20:40:21.235Z,17.04
2019-05-30T20:42:53.402Z,16.84
2019-05-30T20:45:25.044Z,16.92
2019-05-30T20:47:56.597Z,16.94
2019-05-30T20:50:28.477Z,16.99
2019-05-30T20:52:59.990Z,16.83
2019-05-30T20:55:32.172Z,16.81
2019-05-30T20:58:04.785Z,16.79
2019-05-30T21:00:40.487Z,16.81
2019-05-30T21:03:13.476Z,16.75
2019-05-30T21:05:46.018Z,16.73
2019-05-30T21:08:18.332Z,16.87
2019-05-30T21:10:52.212Z,16.91
2019-05-30T21:13:23.709Z,16.86
2019-05-30T21:15:56.967Z,16.82
2019-05-30T21:18:28.129Z,16.76
2019-05-30T21:20:59.732Z,16.68
2019-05-30T21:23:31.269Z,16.60
2019-05-30T21:26:02.669Z,16.56
2019-05-30T21:28:34.532Z,16.62
2019-05-30T21:31:06.287Z,16.67
2019-05-30T21:33:37.925Z,16.64
2019-05-30T21:36:10.461Z,16.72
2019-05-30T21:38:42.066Z,16.81
2019-05-30T21:41:13.746Z,16.79
2019-05-30T21:43:45.152Z,16.93
2019-05-30T21:46:16.720Z,17.03
2019-05-30T21:48:49.059Z,17.08
2019-05-30T21:51:20.663Z,17.22
2019-05-30T21:53:52.224Z,17.32
2019-05-30T21:56:23.692Z,17.35
2019-05-30T21:58:55.459Z,17.36
2019-05-30T22:01:34.131Z,17.40
2019-05-30T22:04:06.939Z,17.33
2019-05-30T22:06:40.856Z,17.33
2019-05-30T22:09:13.968Z,17.28
2019-05-30T22:11:45.795Z,17.31
2019-05-30T22:14:17.458Z,17.27
2019-05-30T22:16:50.242Z,17.35
2019-05-30T22:19:21.860Z,17.31
2019-05-30T22:21:53.598Z,17.36
2019-05-30T22:24:25.173Z,17.41
2019-05-30T22:26:56.756Z,17.49
2019-05-30T22:29:28.266Z,17.55
2019-05-30T22:32:00.533Z,17.58
2019-05-30T22:34:32.237Z,17.56
2019-05-30T22:37:03.922Z,17.50
2019-05-30T22:39:35.981Z,17.53
2019-05-30T22:42:07.447Z,17.57
2019-05-30T22:44:39.376Z,17.55
2019-05-30T22:47:11.071Z,17.60
2019-05-30T22:49:43.019Z,17.48
2019-05-30T22:52:14.681Z,17.55
2019-05-30T22:54:47.082Z,17.53
2019-05-30T22:57:18.908Z,17.55
2019-05-30T22:59:50.934Z,17.40
2019-05-30T23:02:23.083Z,17.49
2019-05-30T23:04:54.532Z,17.35
2019-05-30T23:07:25.864Z,17.49
2019-05-30T23:09:57.352Z,17.34
2019-05-30T23:12:28.921Z,17.26
2019-05-30T23:15:00.275Z,17.37
2019-05-30T23:17:31.686Z,17.32
2019-05-30T23:20:03.269Z,17.38
2019-05-30T23:22:34.860Z,17.24
2019-05-30T23:25:06.547Z,17.23
2019-05-30T23:27:38.334Z,17.08
2019-05-30T23:30:10.101Z,17.17
2019-05-30T23:32:41.738Z,17.25
2019-05-30T23:35:13.453Z,17.12
2019-05-30T23:37:44.955Z,17.24
2019-05-30T23:40:16.559Z,17.27
2019-05-30T23:42:48.942Z,17.21
2019-05-30T23:45:21.081Z,17.06
2019-05-30T23:47:53.482Z,17.03
2019-05-30T23:50:25.041Z,17.05
2019-05-30T23:52:58.159Z,16.95
2019-05-30T23:55:28.844Z,16.85
2019-05-30T23:58:00.852Z,16.84
